GBA weather

Cotswold Airport
Kemble, England, United Kingdom

Public forecast

Using degrees Celsius for public forecast. Weather courtesy of forecast.io.

METAR (pilot weather report)

Closest report is RAF Fairford, 10.0 nm (18.5 km) E. Retrieved 2019/03/26 05:56 UTC (5 minutes ago):

EGVA 260556Z 26003KT 9999 CLR 00/M02 A3055 RMK AO2A SLP352 T10011019 10044 21018 55001 RVRNO $

TAF (pilot weather forecast)

Forecast is more than 12 hours old.

Closest forecast is RAF Lyneham, 10.1 nm (18.6 km) SSE. Retrieved 2011/08/11 03:00 UTC (8 years ago):

TAF EGDL 110136Z 1103/1115 22014KT 9999 SCT008 BKN016 TEMPO 1103/1110 4000 RADZ BKN004 BECMG 1110/1112 BKN018